Time;durP1;ratioP1;P1;durP2;ratioP2;P2;SDS_P1;SDS_P2;PMS_P1;PMS_P2;Temp;Humidity;BMP_temperature;BMP_pressure;BME280_temperature;BME280_humidity;BME280_pressure;Samples;Min_cycle;Max_cycle;Signal;HPM_P1;HPM_P2
2021/10/15 00:01:08;;;;;;;6.10;5.70;;;11.30;99.90;;;;;;5036405;28;20225;-66
2021/10/15 00:03:34;;;;;;;5.87;5.57;;;11.30;99.90;;;;;;5043632;28;20274;-66
2021/10/15 00:06:00;;;;;;;5.70;5.40;;;11.20;99.90;;;;;;5034106;28;20650;-66
2021/10/15 00:08:26;;;;;;;5.90;5.60;;;11.10;99.90;;;;;;5037946;28;20254;-66
2021/10/15 00:10:52;;;;;;;6.77;6.47;;;11.10;99.90;;;;;;5053861;28;20266;-66
2021/10/15 00:13:18;;;;;;;5.90;5.50;;;11.00;99.90;;;;;;5050782;28;20217;-66
2021/10/15 00:15:43;;;;;;;6.23;5.93;;;10.90;99.90;;;;;;5033804;28;20233;-66
2021/10/15 00:18:09;;;;;;;6.00;5.70;;;10.90;99.90;;;;;;5033979;28;20229;-66
2021/10/15 00:20:35;;;;;;;6.43;6.10;;;10.80;99.90;;;;;;5053668;28;20195;-66
2021/10/15 00:23:00;;;;;;;6.00;5.70;;;10.80;99.90;;;;;;5052417;28;20187;-66
2021/10/15 00:25:26;;;;;;;6.10;5.80;;;10.70;99.90;;;;;;5033758;28;20203;-66
2021/10/15 00:27:52;;;;;;;7.40;6.83;;;10.60;99.90;;;;;;5032382;28;20171;-66
2021/10/15 00:30:17;;;;;;;7.40;6.73;;;10.50;99.90;;;;;;5050164;28;20258;-66
2021/10/15 00:32:43;;;;;;;6.00;5.70;;;10.50;99.90;;;;;;5052455;28;20666;-66
2021/10/15 00:35:08;;;;;;;6.33;6.03;;;10.50;99.90;;;;;;5038097;28;20198;-66
2021/10/15 00:37:34;;;;;;;6.23;5.93;;;10.40;99.90;;;;;;5033679;28;20242;-66
2021/10/15 00:40:01;;;;;;;5.80;5.50;;;10.30;99.90;;;;;;5044020;28;20668;-66
2021/10/15 00:42:27;;;;;;;6.10;5.80;;;10.30;99.90;;;;;;5053547;28;20183;-66
2021/10/15 00:44:52;;;;;;;6.03;5.73;;;10.20;99.90;;;;;;5041115;28;20183;-66
2021/10/15 00:47:18;;;;;;;6.07;5.70;;;10.20;99.90;;;;;;5032178;28;20183;-66
2021/10/15 00:49:43;;;;;;;6.37;6.07;;;10.20;99.90;;;;;;5042293;28;20202;-66
2021/10/15 00:52:10;;;;;;;6.37;6.07;;;10.10;99.90;;;;;;5053088;28;20652;-66
2021/10/15 00:54:37;;;;;;;6.37;5.90;;;10.10;99.90;;;;;;5044677;28;20183;-66
2021/10/15 00:57:03;;;;;;;6.03;5.73;;;10.00;99.90;;;;;;5037195;28;20292;-66
2021/10/15 00:59:29;;;;;;;5.77;5.50;;;10.00;99.90;;;;;;5053034;28;20171;-66
2021/10/15 01:01:54;;;;;;;6.57;6.07;;;9.90;99.90;;;;;;5049299;28;20217;-66
2021/10/15 01:04:20;;;;;;;6.10;5.80;;;9.90;99.90;;;;;;5033273;28;20229;-66
2021/10/15 01:06:46;;;;;;;6.30;5.90;;;9.80;99.90;;;;;;5033762;28;20176;-66
2021/10/15 01:09:11;;;;;;;6.20;5.80;;;9.80;99.90;;;;;;5050649;28;20167;-66
2021/10/15 01:11:37;;;;;;;6.70;6.10;;;9.80;99.90;;;;;;5052006;28;20187;-66
2021/10/15 01:14:03;;;;;;;6.27;5.93;;;9.80;99.90;;;;;;5051488;28;20201;-66
2021/10/15 01:16:31;;;;;;;6.60;6.30;;;9.70;99.90;;;;;;5034971;28;20188;-66
2021/10/15 01:18:58;;;;;;;6.70;6.30;;;9.70;99.90;;;;;;5032674;28;20309;-66
2021/10/15 01:21:24;;;;;;;6.83;6.53;;;9.60;99.90;;;;;;5047517;28;20206;-66
2021/10/15 01:23:50;;;;;;;6.50;6.10;;;9.60;99.90;;;;;;5052603;28;20238;-66
2021/10/15 01:26:16;;;;;;;6.73;6.40;;;9.50;99.90;;;;;;5037353;28;20544;-66
2021/10/15 01:28:42;;;;;;;6.40;6.07;;;9.50;99.90;;;;;;5031494;28;20175;-66
2021/10/15 01:31:08;;;;;;;7.13;6.53;;;9.50;99.90;;;;;;5045443;28;20588;-67
2021/10/15 01:33:34;;;;;;;7.30;6.83;;;9.40;99.90;;;;;;5051380;28;20189;-67
2021/10/15 01:36:00;;;;;;;6.23;5.83;;;9.40;99.90;;;;;;5040249;28;20708;-67
2021/10/15 01:38:26;;;;;;;6.17;5.87;;;9.40;99.90;;;;;;5032513;28;20178;-66
2021/10/15 01:40:52;;;;;;;6.23;5.93;;;9.30;99.90;;;;;;5041767;28;20203;-67
2021/10/15 01:43:23;;;;;;;7.30;6.90;;;9.30;99.90;;;;;;5051609;28;20183;-66
2021/10/15 01:45:50;;;;;;;7.10;6.63;;;9.20;99.90;;;;;;5043275;28;20172;-66
2021/10/15 01:48:15;;;;;;;6.83;6.43;;;9.20;99.90;;;;;;5032167;28;20171;-66
2021/10/15 01:50:41;;;;;;;7.00;6.60;;;9.10;99.90;;;;;;5038747;28;20644;-66
2021/10/15 01:53:07;;;;;;;6.93;6.60;;;9.10;99.90;;;;;;5052094;28;20244;-66
2021/10/15 01:55:33;;;;;;;7.50;7.10;;;9.00;99.90;;;;;;5044484;28;20652;-66
2021/10/15 01:57:59;;;;;;;7.93;7.33;;;9.00;99.90;;;;;;5033151;28;20310;-66
2021/10/15 02:00:24;;;;;;;7.50;7.10;;;9.00;99.90;;;;;;5050398;28;20209;-66
2021/10/15 02:02:50;;;;;;;7.37;7.00;;;9.00;99.90;;;;;;5051586;28;20202;-66
2021/10/15 02:05:18;;;;;;;7.73;7.33;;;8.90;99.90;;;;;;5032220;28;20599;-66
2021/10/15 02:07:44;;;;;;;7.97;7.47;;;8.90;99.90;;;;;;5032114;28;20255;-66
2021/10/15 02:10:12;;;;;;;7.40;7.10;;;8.90;99.90;;;;;;5046935;28;20202;-66
2021/10/15 02:12:38;;;;;;;7.93;7.53;;;8.80;99.90;;;;;;5050576;28;20202;-66
2021/10/15 02:15:05;;;;;;;8.20;7.70;;;8.80;99.90;;;;;;5033126;28;20313;-66
2021/10/15 02:17:31;;;;;;;7.33;6.93;;;8.70;99.90;;;;;;5031838;28;20171;-66
2021/10/15 02:19:57;;;;;;;7.43;7.03;;;8.80;99.90;;;;;;5046639;28;20245;-66
2021/10/15 02:22:23;;;;;;;6.70;6.20;;;8.70;99.90;;;;;;5051587;28;20194;-67
2021/10/15 02:24:49;;;;;;;6.83;6.50;;;8.70;99.90;;;;;;5036333;28;20229;-66
2021/10/15 02:27:14;;;;;;;6.90;6.50;;;8.60;99.90;;;;;;5041197;28;20185;-66
2021/10/15 02:29:40;;;;;;;7.57;7.17;;;8.60;99.90;;;;;;5051345;28;20253;-66
2021/10/15 02:32:07;;;;;;;6.97;6.57;;;8.60;99.90;;;;;;5041820;28;20583;-66
2021/10/15 02:34:33;;;;;;;7.10;6.80;;;8.60;99.90;;;;;;5031728;28;20199;-66
2021/10/15 02:36:58;;;;;;;8.70;8.20;;;8.50;99.90;;;;;;5037510;28;20214;-66
2021/10/15 02:39:24;;;;;;;7.77;7.37;;;8.50;99.90;;;;;;5049311;28;20175;-66
2021/10/15 02:41:50;;;;;;;7.93;7.30;;;8.40;99.90;;;;;;5031257;28;20303;-66
2021/10/15 02:44:16;;;;;;;8.70;8.00;;;8.50;99.90;;;;;;5038717;28;20171;-66
2021/10/15 02:46:42;;;;;;;6.60;6.30;;;8.50;99.90;;;;;;5051387;28;20170;-66
2021/10/15 02:49:08;;;;;;;7.90;7.50;;;8.50;99.90;;;;;;5049226;28;20640;-66
2021/10/15 02:51:34;;;;;;;7.13;6.63;;;8.60;99.90;;;;;;5050142;28;20227;-66
2021/10/15 02:54:02;;;;;;;7.40;7.00;;;8.70;99.90;;;;;;5045022;28;20639;-66
2021/10/15 02:56:28;;;;;;;8.23;7.73;;;8.70;99.90;;;;;;5031374;28;20180;-66
2021/10/15 02:58:53;;;;;;;7.80;7.10;;;8.80;99.90;;;;;;5034586;28;20202;-66
2021/10/15 03:01:19;;;;;;;7.17;6.77;;;8.90;99.90;;;;;;5050750;28;20668;-66
2021/10/15 03:03:45;;;;;;;8.07;7.47;;;9.00;99.90;;;;;;5049724;28;20217;-66
2021/10/15 03:06:11;;;;;;;7.87;7.33;;;9.20;99.90;;;;;;5035672;28;20522;-66
2021/10/15 03:08:36;;;;;;;7.07;6.47;;;9.30;99.90;;;;;;5036152;28;20366;-66
2021/10/15 03:11:02;;;;;;;6.50;6.10;;;9.40;99.90;;;;;;5054842;28;20267;-66
2021/10/15 03:13:28;;;;;;;7.90;7.40;;;9.40;99.90;;;;;;5055136;28;20202;-66
2021/10/15 03:15:53;;;;;;;9.37;8.47;;;9.50;99.90;;;;;;5035736;28;20225;-67
2021/10/15 03:18:19;;;;;;;8.33;7.93;;;9.60;99.90;;;;;;5035191;28;20180;-67
2021/10/15 03:20:45;;;;;;;8.57;8.17;;;9.60;99.90;;;;;;5052004;28;20209;-66
2021/10/15 03:23:11;;;;;;;9.10;8.60;;;9.70;99.90;;;;;;5041555;28;20207;-66
2021/10/15 03:25:38;;;;;;;8.53;7.93;;;9.80;99.90;;;;;;5044289;28;20179;-66
2021/10/15 03:28:04;;;;;;;8.30;7.90;;;9.90;99.90;;;;;;5054717;28;20611;-66
2021/10/15 03:30:30;;;;;;;9.87;9.17;;;9.90;99.90;;;;;;5049213;28;20543;-66
2021/10/15 03:32:55;;;;;;;9.30;8.70;;;10.00;99.90;;;;;;5044316;28;20245;-66
2021/10/15 03:35:21;;;;;;;6.67;6.30;;;10.10;99.90;;;;;;5034839;28;20683;-67
2021/10/15 03:37:47;;;;;;;8.57;7.80;;;10.20;99.90;;;;;;5033479;28;20206;-66
2021/10/15 03:40:13;;;;;;;7.00;6.60;;;10.30;99.90;;;;;;5037498;28;20240;-67
2021/10/15 03:42:39;;;;;;;6.50;6.13;;;10.40;99.90;;;;;;5054950;28;20202;-67
2021/10/15 03:45:06;;;;;;;7.03;6.70;;;10.50;99.90;;;;;;5052731;28;20171;-67
2021/10/15 03:47:32;;;;;;;6.90;6.47;;;10.60;99.90;;;;;;5034645;28;20171;-66
2021/10/15 03:49:58;;;;;;;6.63;6.33;;;10.60;99.90;;;;;;5034460;28;20607;-66
2021/10/15 03:52:24;;;;;;;7.47;7.07;;;10.70;99.90;;;;;;5053038;28;20218;-66
2021/10/15 03:54:49;;;;;;;6.77;6.37;;;10.70;99.90;;;;;;5053163;28;20178;-66
2021/10/15 03:57:15;;;;;;;6.80;6.33;;;10.80;99.90;;;;;;5035347;28;20605;-67
2021/10/15 03:59:40;;;;;;;6.30;5.90;;;10.80;99.90;;;;;;5034340;28;20515;-66
2021/10/15 04:02:06;;;;;;;7.07;6.67;;;10.90;99.90;;;;;;5050778;28;20303;-69
2021/10/15 04:04:32;;;;;;;5.97;5.67;;;10.90;99.90;;;;;;5053372;28;20194;-66
2021/10/15 04:06:57;;;;;;;6.73;6.33;;;10.90;99.90;;;;;;5036524;28;20172;-66
2021/10/15 04:09:24;;;;;;;7.50;7.10;;;11.00;99.90;;;;;;5033108;28;20195;-66
2021/10/15 04:11:50;;;;;;;6.90;6.40;;;11.00;99.90;;;;;;5045854;28;20237;-67
2021/10/15 04:14:16;;;;;;;7.40;7.00;;;11.00;99.90;;;;;;5051457;28;20190;-69
2021/10/15 04:16:42;;;;;;;6.73;6.33;;;11.00;99.90;;;;;;5042287;28;20257;-68
2021/10/15 04:19:07;;;;;;;6.60;6.20;;;11.10;99.90;;;;;;5038837;28;20174;-64
2021/10/15 04:21:33;;;;;;;6.60;6.30;;;11.10;99.90;;;;;;5052741;28;20293;-64
2021/10/15 04:23:59;;;;;;;7.00;6.60;;;11.20;99.90;;;;;;5044944;28;20200;-65
2021/10/15 04:26:24;;;;;;;7.10;6.70;;;11.20;99.90;;;;;;5031564;28;20180;-65
2021/10/15 04:28:50;;;;;;;6.23;5.90;;;11.20;99.90;;;;;;5036622;28;20178;-66
2021/10/15 04:31:16;;;;;;;6.63;6.23;;;11.30;99.90;;;;;;5052314;28;20187;-64
2021/10/15 04:33:42;;;;;;;6.63;6.23;;;11.30;99.90;;;;;;5050114;28;20294;-64
2021/10/15 04:36:08;;;;;;;7.20;6.80;;;11.40;99.90;;;;;;5031105;28;20637;-64
2021/10/15 04:38:33;;;;;;;7.03;6.63;;;11.40;99.90;;;;;;5031599;28;20232;-65
2021/10/15 04:40:59;;;;;;;6.50;6.20;;;11.40;99.90;;;;;;5052020;28;20301;-64
2021/10/15 04:43:25;;;;;;;6.30;6.00;;;11.30;99.90;;;;;;5052402;28;20191;-65
2021/10/15 04:45:50;;;;;;;6.40;5.90;;;11.30;99.90;;;;;;5033537;28;20706;-64
2021/10/15 04:48:16;;;;;;;7.03;6.63;;;11.30;99.90;;;;;;5044775;28;20210;-65
2021/10/15 04:50:42;;;;;;;8.27;7.63;;;11.20;99.90;;;;;;5047482;28;20191;-66
2021/10/15 04:53:08;;;;;;;6.37;5.93;;;11.30;99.90;;;;;;5038886;28;20210;-66
2021/10/15 04:55:35;;;;;;;6.10;5.70;;;11.30;99.90;;;;;;5031141;28;20190;-66
2021/10/15 04:58:01;;;;;;;6.47;6.07;;;11.40;99.90;;;;;;5043222;28;20528;-66
2021/10/15 05:00:29;;;;;;;6.73;6.33;;;11.30;99.90;;;;;;5050467;28;20230;-66
2021/10/15 05:02:55;;;;;;;6.50;6.10;;;11.40;99.90;;;;;;5003017;28;1100527;-65
2021/10/15 05:05:23;;;;;;;8.33;6.37;;;11.40;99.90;;;;;;5033341;28;20167;-65
2021/10/15 05:07:49;;;;;;;6.70;6.30;;;11.40;99.90;;;;;;5047399;28;20273;-65
2021/10/15 05:10:16;;;;;;;6.97;6.47;;;11.40;99.90;;;;;;5052619;28;20183;-66
2021/10/15 05:12:42;;;;;;;6.77;6.37;;;11.40;99.90;;;;;;5038696;28;20827;-66
2021/10/15 05:15:09;;;;;;;6.90;6.50;;;11.40;99.90;;;;;;5035802;28;20186;-66
2021/10/15 05:17:35;;;;;;;7.67;7.03;;;11.40;99.90;;;;;;5050254;28;20189;-65
2021/10/15 05:20:03;;;;;;;8.17;7.67;;;11.40;99.90;;;;;;5047189;28;20190;-65
2021/10/15 05:22:28;;;;;;;7.60;7.17;;;11.40;99.90;;;;;;5032674;28;20559;-65
2021/10/15 05:24:54;;;;;;;7.43;6.73;;;11.40;99.90;;;;;;5043042;28;20186;-65
2021/10/15 05:27:20;;;;;;;7.03;6.47;;;11.50;99.90;;;;;;5052122;28;20182;-65
2021/10/15 05:29:48;;;;;;;7.60;6.90;;;11.50;99.90;;;;;;5043486;28;20185;-65
2021/10/15 05:32:15;;;;;;;6.93;6.47;;;11.50;99.90;;;;;;5051866;28;20637;-65
2021/10/15 05:34:41;;;;;;;6.73;6.33;;;11.50;99.90;;;;;;5051243;28;20542;-65
2021/10/15 05:37:07;;;;;;;6.70;6.30;;;11.50;99.90;;;;;;5046277;28;20185;-65
2021/10/15 05:39:33;;;;;;;6.77;6.27;;;11.50;99.90;;;;;;5045515;28;20183;-65
2021/10/15 05:41:59;;;;;;;6.73;6.30;;;11.50;99.90;;;;;;5031959;28;20261;-65
2021/10/15 05:44:24;;;;;;;6.90;6.40;;;11.50;99.90;;;;;;5035151;28;20244;-65
2021/10/15 05:46:50;;;;;;;6.63;6.13;;;11.50;99.90;;;;;;5032356;28;20194;-65
2021/10/15 05:49:17;;;;;;;6.80;6.40;;;11.60;99.90;;;;;;5043362;28;20182;-65
2021/10/15 05:51:44;;;;;;;6.10;5.80;;;11.60;99.90;;;;;;5042829;28;20238;-65
2021/10/15 05:54:15;;;;;;;6.60;6.20;;;11.50;99.90;;;;;;5036840;28;20294;-65
2021/10/15 05:57:01;;;;;;;6.23;5.83;;;11.60;99.90;;;;;;5052005;28;20175;-65
2021/10/15 05:59:27;;;;;;;6.30;5.90;;;11.60;99.90;;;;;;5045022;28;20179;-65
2021/10/15 06:01:57;;;;;;;6.27;5.97;;;11.60;99.90;;;;;;5031598;28;20583;-65
2021/10/15 06:15:29;;;;;;;6.10;5.60;;;11.70;99.90;;;;;;5044926;28;20186;-65
2021/10/15 06:17:56;;;;;;;6.83;6.43;;;11.70;99.90;;;;;;5051530;28;20167;-65
2021/10/15 06:20:22;;;;;;;5.90;5.60;;;11.70;99.90;;;;;;5039424;28;20614;-65
2021/10/15 06:22:48;;;;;;;7.30;6.70;;;11.70;99.90;;;;;;5030512;28;20203;-65
2021/10/15 06:25:14;;;;;;;6.20;5.90;;;11.70;99.90;;;;;;5040996;28;20186;-65
2021/10/15 06:27:40;;;;;;;6.60;6.20;;;11.80;99.90;;;;;;5051626;28;20183;-65
2021/10/15 06:30:06;;;;;;;7.17;6.67;;;11.80;99.90;;;;;;5042933;28;20699;-65
2021/10/15 06:32:32;;;;;;;6.87;6.47;;;11.80;99.90;;;;;;5034703;28;20237;-65
2021/10/15 06:34:57;;;;;;;6.80;6.40;;;11.80;99.90;;;;;;5050063;28;20175;-65
2021/10/15 06:37:24;;;;;;;6.43;6.03;;;11.80;99.90;;;;;;5047776;28;20171;-65
2021/10/15 06:39:53;;;;;;;6.80;6.40;;;11.80;99.90;;;;;;5029573;28;20276;-65
2021/10/15 06:42:19;;;;;;;7.20;6.70;;;11.80;99.90;;;;;;5028628;28;20195;-65
2021/10/15 06:44:45;;;;;;;6.97;6.50;;;11.80;99.90;;;;;;5031391;28;20301;-65
2021/10/15 06:47:11;;;;;;;6.97;6.50;;;11.90;99.90;;;;;;5029592;28;20180;-65
2021/10/15 06:49:37;;;;;;;6.97;6.40;;;11.90;99.90;;;;;;5050455;28;20587;-65
2021/10/15 06:52:03;;;;;;;6.80;6.30;;;11.90;99.90;;;;;;5049669;28;20179;-65
2021/10/15 06:54:28;;;;;;;5.70;5.40;;;11.90;99.90;;;;;;5033129;28;20637;-65
2021/10/15 06:56:54;;;;;;;6.00;5.70;;;12.00;99.90;;;;;;5031196;28;20179;-65
2021/10/15 06:59:19;;;;;;;7.27;6.77;;;11.90;99.90;;;;;;5046653;28;20171;-65
2021/10/15 07:01:45;;;;;;;6.23;5.90;;;12.00;99.90;;;;;;5050282;28;20213;-65
2021/10/15 07:04:11;;;;;;;6.40;5.67;;;12.00;99.90;;;;;;5050696;28;20245;-65
2021/10/15 07:06:37;;;;;;;6.40;6.10;;;12.10;99.90;;;;;;5040595;28;20249;-65
2021/10/15 07:09:03;;;;;;;6.90;6.43;;;12.10;99.90;;;;;;5030883;28;20247;-67
2021/10/15 07:11:31;;;;;;;6.37;5.97;;;12.10;99.90;;;;;;5039487;28;20213;-65
2021/10/15 07:13:57;;;;;;;6.80;6.30;;;12.10;99.90;;;;;;5050843;28;20187;-65
2021/10/15 07:16:22;;;;;;;7.10;6.50;;;12.20;99.90;;;;;;5043606;28;20183;-65
2021/10/15 07:18:48;;;;;;;8.40;6.77;;;12.20;99.90;;;;;;5031130;28;20180;-65
2021/10/15 07:21:15;;;;;;;6.47;6.10;;;12.20;99.90;;;;;;5034875;28;20287;-65
2021/10/15 07:23:41;;;;;;;6.40;6.10;;;12.20;99.90;;;;;;5049580;28;20247;-65
2021/10/15 07:26:06;;;;;;;6.37;5.97;;;12.30;99.90;;;;;;5030918;28;20472;-65
2021/10/15 07:28:32;;;;;;;6.57;6.27;;;12.40;99.90;;;;;;5030821;28;20294;-65
2021/10/15 07:30:59;;;;;;;6.80;6.40;;;12.50;99.90;;;;;;5050563;28;20650;-65
2021/10/15 07:33:25;;;;;;;6.87;6.47;;;12.50;99.90;;;;;;5050867;28;20193;-65
2021/10/15 07:35:51;;;;;;;7.07;6.67;;;12.60;99.90;;;;;;5036675;28;20187;-65
2021/10/15 07:38:16;;;;;;;7.13;6.73;;;12.70;99.90;;;;;;5050603;28;20175;-65
2021/10/15 07:40:42;;;;;;;7.17;6.77;;;12.70;99.90;;;;;;5049064;28;20234;-65
2021/10/15 07:43:08;;;;;;;8.43;7.50;;;12.80;99.90;;;;;;5045749;28;20687;-67
2021/10/15 07:45:34;;;;;;;7.27;6.80;;;12.80;99.90;;;;;;5031177;28;20183;-65
2021/10/15 07:48:00;;;;;;;7.27;6.83;;;12.90;99.90;;;;;;5043993;28;20178;-65
2021/10/15 07:50:26;;;;;;;6.33;5.87;;;12.90;99.90;;;;;;5052543;28;20193;-65
2021/10/15 07:52:52;;;;;;;7.37;6.67;;;13.00;99.90;;;;;;5041925;28;20207;-65
2021/10/15 07:55:18;;;;;;;7.30;6.80;;;13.00;99.90;;;;;;5034289;28;20184;-65
2021/10/15 07:57:43;;;;;;;7.23;6.63;;;13.10;99.90;;;;;;5044474;28;20481;-65
2021/10/15 08:00:11;;;;;;;7.10;6.70;;;13.10;99.90;;;;;;5053607;28;20770;-65
2021/10/15 08:02:38;;;;;;;6.53;6.13;;;13.10;99.90;;;;;;5052189;28;20207;-65
2021/10/15 08:05:05;;;;;;;7.30;6.80;;;13.20;99.90;;;;;;5054032;28;20205;-65
2021/10/15 08:07:31;;;;;;;6.87;6.47;;;13.20;99.90;;;;;;5046378;28;20180;-65
2021/10/15 08:09:57;;;;;;;6.73;6.23;;;13.30;99.90;;;;;;5033550;28;20656;-65
2021/10/15 08:12:22;;;;;;;7.13;6.60;;;13.30;99.90;;;;;;5035009;28;20199;-65
2021/10/15 08:14:48;;;;;;;6.50;6.20;;;13.40;99.90;;;;;;5033760;28;20183;-65
2021/10/15 08:17:14;;;;;;;6.83;6.43;;;13.40;99.90;;;;;;5037611;28;20624;-65
2021/10/15 08:19:40;;;;;;;7.60;7.10;;;13.40;99.90;;;;;;5053779;28;20204;-65
2021/10/15 08:22:06;;;;;;;7.67;7.17;;;13.40;99.90;;;;;;5050813;28;20708;-65
2021/10/15 08:24:32;;;;;;;6.87;6.47;;;13.40;99.90;;;;;;5034049;28;20224;-65
2021/10/15 08:26:57;;;;;;;7.17;6.57;;;13.40;99.90;;;;;;5051614;28;20591;-65
2021/10/15 08:29:23;;;;;;;6.77;5.93;;;13.40;99.90;;;;;;5053430;28;20656;-65
2021/10/15 08:31:50;;;;;;;6.90;6.50;;;13.40;99.90;;;;;;5051782;28;20183;-65
2021/10/15 08:34:17;;;;;;;6.60;6.20;;;13.40;99.90;;;;;;5053400;28;20167;-65
2021/10/15 08:36:44;;;;;;;6.57;6.07;;;13.40;99.90;;;;;;5038272;28;20183;-65
2021/10/15 08:39:10;;;;;;;6.67;6.17;;;13.50;99.90;;;;;;5031919;28;20598;-65
2021/10/15 08:41:36;;;;;;;6.23;5.57;;;13.50;99.90;;;;;;5046674;28;20209;-65
2021/10/15 08:44:02;;;;;;;6.90;6.47;;;13.60;99.90;;;;;;5053300;28;20270;-65
2021/10/15 08:46:28;;;;;;;6.73;6.33;;;13.70;99.90;;;;;;5042972;28;20182;-65
2021/10/15 08:48:54;;;;;;;6.87;6.37;;;13.70;99.90;;;;;;5044483;28;20179;-65
2021/10/15 08:51:22;;;;;;;7.27;6.87;;;13.90;99.90;;;;;;5053192;28;20174;-64
2021/10/15 08:53:58;;;;;;;7.33;6.83;;;13.80;99.90;;;;;;5043351;28;20227;-64
2021/10/15 08:56:34;;;;;;;6.90;6.40;;;13.80;99.90;;;;;;5033444;28;20186;-65
2021/10/15 08:59:07;;;;;;;7.33;6.93;;;13.90;99.90;;;;;;5041972;28;20170;-64
2021/10/15 09:01:45;;;;;;;6.90;6.50;;;13.90;99.90;;;;;;5052469;28;20289;-65
2021/10/15 09:04:17;;;;;;;6.70;6.30;;;14.00;99.90;;;;;;5042151;28;20641;-65
2021/10/15 09:06:43;;;;;;;6.50;6.10;;;14.10;99.90;;;;;;5033186;28;20160;-66
2021/10/15 09:09:10;;;;;;;7.13;6.57;;;14.20;99.90;;;;;;5041901;28;20186;-65
2021/10/15 09:11:35;;;;;;;6.77;6.33;;;14.20;99.90;;;;;;5053184;28;20178;-65
2021/10/15 09:14:21;;;;;;;7.60;7.00;;;14.30;99.90;;;;;;5044406;28;20199;-65
2021/10/15 09:16:51;;;;;;;6.60;6.20;;;14.30;99.90;;;;;;5032934;28;20176;-65
2021/10/15 09:19:37;;;;;;;7.13;6.53;;;14.30;99.90;;;;;;5042923;28;20186;-66
2021/10/15 09:22:06;;;;;;;6.83;6.43;;;14.30;99.90;;;;;;5043932;28;20207;-66
2021/10/15 09:24:36;;;;;;;6.97;6.57;;;14.30;99.90;;;;;;5038874;28;20645;-66
2021/10/15 09:27:13;;;;;;;7.10;6.50;;;14.40;99.90;;;;;;5052465;28;20163;-66
2021/10/15 09:29:53;;;;;;;7.73;7.13;;;14.20;99.90;;;;;;5050717;28;20183;-66
2021/10/15 09:32:21;;;;;;;7.20;6.60;;;14.10;99.90;;;;;;5052382;28;20194;-66
2021/10/15 09:34:47;;;;;;;8.33;7.73;;;14.10;99.90;;;;;;5034513;28;20184;-66
2021/10/15 09:37:19;;;;;;;7.30;6.80;;;13.90;99.90;;;;;;5032266;28;20175;-66
2021/10/15 09:39:45;;;;;;;7.20;6.60;;;13.60;99.90;;;;;;5035029;28;20232;-66
2021/10/15 09:42:44;;;;;;;7.07;6.47;;;13.50;99.90;;;;;;5032571;28;20215;-66
2021/10/15 09:45:18;;;;;;;6.97;6.47;;;13.20;99.90;;;;;;5050561;28;20599;-67
2021/10/15 09:47:59;;;;;;;7.83;7.33;;;12.90;99.90;;;;;;5047362;28;20173;-67
2021/10/15 09:50:27;;;;;;;8.10;7.40;;;12.80;99.90;;;;;;5032003;28;20179;-67
2021/10/15 09:52:56;;;;;;;7.10;6.67;;;12.60;99.90;;;;;;5037287;28;20199;-67
2021/10/15 09:55:25;;;;;;;7.93;7.43;;;12.50;99.90;;;;;;5050856;28;20171;-67
2021/10/15 09:57:53;;;;;;;8.70;8.10;;;12.40;99.90;;;;;;5050392;28;20179;-66
2021/10/15 10:00:23;;;;;;;7.60;7.10;;;12.40;99.90;;;;;;5050352;28;20186;-67
2021/10/15 10:02:49;;;;;;;7.53;7.13;;;12.40;99.90;;;;;;5081241;22;20704;-64
2021/10/15 10:05:18;;;;;;;7.73;7.07;;;12.40;99.90;;;;;;5071947;28;20597;-63
2021/10/15 10:07:47;;;;;;;8.90;8.10;;;12.40;99.90;;;;;;5069712;28;20189;-65
2021/10/15 10:10:15;;;;;;;7.80;7.20;;;12.50;99.90;;;;;;5051138;28;20191;-64
2021/10/15 10:12:41;;;;;;;7.23;6.83;;;12.60;99.90;;;;;;5052616;28;20281;-63
2021/10/15 10:15:12;;;;;;;7.50;7.00;;;12.50;99.90;;;;;;5068060;28;20193;-64
2021/10/15 10:21:09;;;;;;;8.37;7.77;;;12.60;99.90;;;;;;5051157;28;20202;-64
2021/10/15 10:23:43;;;;;;;8.40;7.67;;;12.60;99.90;;;;;;5050007;28;20256;-64
2021/10/15 10:26:11;;;;;;;8.40;7.80;;;12.70;99.90;;;;;;5071526;28;20247;-64
2021/10/15 10:28:37;;;;;;;8.40;7.70;;;12.70;99.90;;;;;;5063631;28;20179;-64
2021/10/15 10:31:06;;;;;;;8.57;7.90;;;12.70;99.90;;;;;;5050917;28;20258;-64
2021/10/15 10:34:16;;;;;;;8.87;8.27;;;12.80;99.90;;;;;;5057540;28;20201;-63
2021/10/15 10:36:42;;;;;;;8.60;7.90;;;12.80;99.90;;;;;;5068169;28;20189;-63
2021/10/15 10:39:37;;;;;;;10.83;9.83;;;12.90;99.90;;;;;;5059952;28;20644;-63
2021/10/15 10:42:10;;;;;;;10.03;9.23;;;12.80;99.90;;;;;;5043050;28;20218;-63
2021/10/15 10:44:49;;;;;;;10.43;9.53;;;12.90;99.90;;;;;;5071236;28;20170;-64
2021/10/15 10:47:28;;;;;;;9.13;8.37;;;12.90;99.90;;;;;;5064568;28;20236;-63
2021/10/15 10:50:06;;;;;;;8.30;7.50;;;13.00;99.90;;;;;;5050844;28;20180;-64
2021/10/15 10:52:34;;;;;;;8.10;7.40;;;13.00;99.90;;;;;;5059321;28;20205;-64
2021/10/15 10:55:01;;;;;;;8.67;8.00;;;13.20;99.90;;;;;;5070962;28;20174;-63
2021/10/15 10:57:32;;;;;;;8.63;8.03;;;13.40;99.90;;;;;;5064190;28;20213;-64
2021/10/15 11:00:30;;;;;;;10.80;8.70;;;13.50;99.90;;;;;;5050596;28;20198;-63
2021/10/15 11:02:58;;;;;;;9.03;8.13;;;13.60;99.90;;;;;;5048994;28;20217;-64
2021/10/15 11:05:39;;;;;;;9.10;8.33;;;13.60;99.90;;;;;;5071222;28;20690;-64
2021/10/15 11:08:23;;;;;;;8.43;7.53;;;13.80;99.90;;;;;;5059647;28;20202;-64
2021/10/15 11:11:09;;;;;;;8.70;7.97;;;13.90;99.90;;;;;;5060052;28;20358;-64
2021/10/15 11:13:37;;;;;;;8.10;7.57;;;13.90;99.90;;;;;;5070880;28;20228;-64
2021/10/15 11:16:21;;;;;;;8.30;7.70;;;13.70;99.90;;;;;;5060007;28;20566;-64
2021/10/15 11:18:47;;;;;;;6.77;6.37;;;13.50;99.90;;;;;;5050984;28;20178;-64
2021/10/15 11:21:13;;;;;;;6.17;5.80;;;13.20;99.90;;;;;;5062013;28;20202;-64
2021/10/15 11:23:40;;;;;;;6.13;5.83;;;12.90;99.90;;;;;;5067968;28;20197;-64
2021/10/15 11:26:06;;;;;;;5.80;5.50;;;12.60;99.90;;;;;;5054702;28;20171;-64
2021/10/15 11:28:32;;;;;;;7.17;6.77;;;12.50;99.90;;;;;;5056512;28;20167;-64
2021/10/15 11:30:58;;;;;;;6.80;6.40;;;12.50;99.90;;;;;;5074351;28;20257;-63
2021/10/15 11:33:26;;;;;;;5.77;5.47;;;12.60;99.90;;;;;;5074166;28;20243;-62
2021/10/15 11:35:52;;;;;;;5.60;5.40;;;12.70;99.90;;;;;;5054920;28;20208;-64
2021/10/15 11:38:21;;;;;;;5.70;5.30;;;12.60;99.90;;;;;;5055584;28;20297;-62
2021/10/15 11:40:56;;;;;;;5.10;4.80;;;12.60;99.90;;;;;;5065077;28;20660;-64
2021/10/15 11:43:26;;;;;;;6.03;5.73;;;12.80;99.90;;;;;;5054621;28;20264;-64
2021/10/15 11:46:10;;;;;;;7.37;6.87;;;12.90;99.90;;;;;;5056920;28;20178;-63
2021/10/15 11:48:40;;;;;;;6.10;5.80;;;13.00;99.90;;;;;;5074483;28;20167;-64
2021/10/15 11:51:08;;;;;;;5.93;5.63;;;13.20;99.90;;;;;;5070110;28;20183;-64
2021/10/15 11:53:40;;;;;;;6.10;5.80;;;13.40;99.90;;;;;;5054360;28;20274;-64
2021/10/15 11:56:08;;;;;;;6.13;5.83;;;13.60;99.90;;;;;;5056229;28;20186;-64
2021/10/15 11:58:41;;;;;;;5.50;5.30;;;13.80;99.90;;;;;;5074226;28;20170;-64
2021/10/15 12:01:12;;;;;;;5.33;5.03;;;13.80;99.90;;;;;;5072301;28;20197;-64
2021/10/15 12:03:45;;;;;;;5.53;5.23;;;14.10;99.90;;;;;;5073297;28;20263;-64
2021/10/15 12:06:11;;;;;;;5.77;5.30;;;14.40;99.90;;;;;;5071137;28;20178;-64
2021/10/15 12:08:38;;;;;;;5.87;5.57;;;14.80;99.90;;;;;;5054210;28;20237;-64
2021/10/15 12:11:09;;;;;;;5.90;5.60;;;14.80;99.90;;;;;;5068000;28;20601;-64
2021/10/15 12:13:35;;;;;;;5.80;5.30;;;15.00;99.90;;;;;;5074238;28;20281;-64
2021/10/15 12:16:15;;;;;;;5.57;5.37;;;15.10;99.90;;;;;;5059917;28;20282;-64
2021/10/15 12:18:41;;;;;;;5.03;4.83;;;15.20;99.90;;;;;;5054216;28;20170;-64
2021/10/15 12:21:12;;;;;;;5.20;5.00;;;15.20;99.90;;;;;;5067151;28;20212;-64
2021/10/15 12:23:51;;;;;;;5.03;4.83;;;15.10;99.90;;;;;;5073980;28;20232;-64
2021/10/15 12:26:22;;;;;;;5.13;4.87;;;15.10;99.90;;;;;;5058321;28;20601;-64
2021/10/15 12:28:49;;;;;;;6.10;5.80;;;15.10;99.90;;;;;;5053757;28;20190;-64
2021/10/15 12:31:33;;;;;;;5.30;5.00;;;15.30;99.90;;;;;;5064697;28;20874;-64
2021/10/15 12:34:06;;;;;;;5.10;4.90;;;15.50;99.90;;;;;;5073409;28;20218;-64
2021/10/15 12:36:34;;;;;;;5.20;4.90;;;15.60;99.90;;;;;;5054796;28;20659;-64
2021/10/15 12:39:23;;;;;;;4.50;4.30;;;16.00;99.90;;;;;;5052966;28;20175;-64
2021/10/15 12:41:51;;;;;;;4.80;4.60;;;16.40;99.90;;;;;;5072452;28;20206;-64
2021/10/15 12:44:27;;;;;;;4.60;4.40;;;16.60;99.90;;;;;;5073229;28;20560;-64
2021/10/15 12:47:07;;;;;;;5.40;5.00;;;16.60;99.90;;;;;;5054171;28;20209;-64
2021/10/15 12:50:11;;;;;;;5.10;4.90;;;16.60;99.90;;;;;;5053058;28;20655;-64
2021/10/15 12:52:41;;;;;;;5.70;5.30;;;16.60;99.90;;;;;;4991615;28;20215;-64
2021/10/15 12:55:25;;;;;;;4.60;4.40;;;16.90;99.90;;;;;;5046527;28;20183;-64
2021/10/15 12:58:03;;;;;;;4.27;4.00;;;17.40;99.90;;;;;;5071430;28;20661;-63
2021/10/15 13:00:30;;;;;;;4.60;4.40;;;17.80;99.90;;;;;;5052758;28;20214;-63
2021/10/15 13:03:06;;;;;;;4.10;3.90;;;17.90;99.90;;;;;;5067343;28;20216;-64
2021/10/15 13:05:33;;;;;;;4.60;4.30;;;18.10;99.90;;;;;;5054443;28;20473;-64
2021/10/15 13:08:00;;;;;;;4.50;4.30;;;18.10;99.90;;;;;;5054318;28;20171;-64